createdAt,value
2019-04-27T00:02:24.793Z,99.70
2019-04-27T00:05:00.834Z,99.90
2019-04-27T00:07:37.720Z,99.90
2019-04-27T00:10:20.368Z,99.90
2019-04-27T00:12:53.052Z,99.90
2019-04-27T00:15:36.464Z,99.90
2019-04-27T00:18:38.166Z,99.90
2019-04-27T00:21:17.452Z,99.90
2019-04-27T00:23:48.107Z,99.90
2019-04-27T00:26:18.751Z,99.90
2019-04-27T00:28:50.103Z,99.90
2019-04-27T00:31:21.395Z,99.90
2019-04-27T00:33:50.850Z,99.90
2019-04-27T00:36:30.358Z,99.90
2019-04-27T00:39:27.309Z,99.90
2019-04-27T00:44:46.940Z,99.90
2019-04-27T00:50:03.576Z,99.90
2019-04-27T00:52:32.588Z,99.90
2019-04-27T00:55:04.759Z,99.90
2019-04-27T00:57:59.475Z,99.90
2019-04-27T01:00:47.963Z,99.90
2019-04-27T01:03:39.574Z,99.90
2019-04-27T01:06:13.074Z,99.90
2019-04-27T01:08:54.969Z,99.90
2019-04-27T01:11:25.120Z,99.90
2019-04-27T01:13:58.351Z,99.90
2019-04-27T01:16:42.707Z,99.90
2019-04-27T01:19:16.047Z,99.90
2019-04-27T01:21:41.013Z,99.90
2019-04-27T01:24:15.553Z,99.90
2019-04-27T01:27:10.363Z,99.90
2019-04-27T01:29:50.015Z,99.90
2019-04-27T01:32:20.667Z,99.90
2019-04-27T01:34:50.500Z,99.90
2019-04-27T01:37:21.218Z,99.90
2019-04-27T01:39:50.968Z,99.90
2019-04-27T01:42:20.498Z,99.90
2019-04-27T01:44:51.063Z,99.90
2019-04-27T01:47:23.002Z,99.90
2019-04-27T01:49:52.932Z,99.90
2019-04-27T01:52:22.424Z,99.90
2019-04-27T01:54:52.063Z,99.90
2019-04-27T01:57:22.133Z,99.90
2019-04-27T01:59:51.631Z,99.90
2019-04-27T02:02:34.521Z,99.90
2019-04-27T02:05:21.769Z,99.90
2019-04-27T02:07:51.370Z,99.90
2019-04-27T02:13:30.986Z,99.90
2019-04-27T02:16:05.567Z,99.90
2019-04-27T02:18:40.720Z,99.90
2019-04-27T02:21:09.108Z,99.90
2019-04-27T02:23:41.742Z,99.90
2019-04-27T02:26:14.764Z,99.90
2019-04-27T02:29:08.755Z,99.90
2019-04-27T02:32:39.763Z,99.90
2019-04-27T02:35:13.711Z,99.90
2019-04-27T02:37:47.021Z,99.90
2019-04-27T02:40:55.164Z,99.90
2019-04-27T02:43:44.195Z,99.90
2019-04-27T02:46:13.872Z,99.90
2019-04-27T02:51:49.449Z,99.90
2019-04-27T02:54:14.376Z,99.90
2019-04-27T02:57:19.447Z,99.90
2019-04-27T02:59:50.379Z,99.90
2019-04-27T03:02:29.949Z,99.90
2019-04-27T03:05:01.343Z,99.90
2019-04-27T03:07:42.703Z,99.90
2019-04-27T03:10:12.611Z,99.90
2019-04-27T03:15:30.575Z,99.90
2019-04-27T03:18:36.356Z,99.90
2019-04-27T03:21:31.010Z,99.90
2019-04-27T03:24:04.016Z,99.90
2019-04-27T03:27:20.053Z,99.90
2019-04-27T03:35:35.127Z,99.90
2019-04-27T03:38:03.440Z,99.90
2019-04-27T03:40:33.450Z,99.90
2019-04-27T03:43:20.376Z,99.90
2019-04-27T03:46:00.203Z,99.90
2019-04-27T03:48:34.994Z,99.90
2019-04-27T03:51:40.350Z,99.90
2019-04-27T03:54:29.670Z,99.90
2019-04-27T03:57:12.642Z,99.90
2019-04-27T04:00:00.920Z,99.90
2019-04-27T04:02:41.279Z,99.90
2019-04-27T04:05:14.524Z,99.90
2019-04-27T04:07:50.026Z,99.90
2019-04-27T04:10:19.790Z,99.90
2019-04-27T04:13:22.569Z,99.90
2019-04-27T04:16:49.710Z,99.90
2019-04-27T04:19:00.923Z,99.90
2019-04-27T04:21:32.669Z,99.90
2019-04-27T04:24:02.269Z,99.90
2019-04-27T04:26:39.924Z,99.90
2019-04-27T04:29:16.141Z,99.90
2019-04-27T04:31:50.469Z,99.90
2019-04-27T04:34:23.806Z,99.90
2019-04-27T04:36:55.855Z,99.90
2019-04-27T04:39:29.558Z,99.90
2019-04-27T04:42:33.035Z,99.90
2019-04-27T04:45:30.403Z,99.90
2019-04-27T04:48:09.807Z,99.90
2019-04-27T04:50:40.540Z,99.90
2019-04-27T04:53:13.364Z,99.80
2019-04-27T04:59:09.937Z,99.20
2019-04-27T05:01:39.935Z,98.80
2019-04-27T05:04:09.590Z,98.80
2019-04-27T05:06:39.133Z,98.60
2019-04-27T05:09:09.343Z,98.30
2019-04-27T05:11:42.388Z,97.70
2019-04-27T05:14:28.797Z,96.60
2019-04-27T05:16:59.230Z,95.80
2019-04-27T05:19:32.767Z,95.00
2019-04-27T05:22:07.103Z,94.60
2019-04-27T05:24:39.395Z,94.00
2019-04-27T05:27:10.161Z,93.50
2019-04-27T05:29:39.792Z,93.40
2019-04-27T05:32:11.740Z,93.20
2019-04-27T05:34:44.719Z,92.80
2019-04-27T05:37:14.385Z,93.00
2019-04-27T05:39:55.568Z,92.80
2019-04-27T05:42:26.504Z,92.60
2019-04-27T05:45:09.288Z,92.60
2019-04-27T05:47:48.488Z,92.30
2019-04-27T05:50:20.105Z,92.40
2019-04-27T05:52:49.527Z,92.80
2019-04-27T05:55:19.268Z,92.80
2019-04-27T05:57:49.117Z,92.90
2019-04-27T06:00:20.405Z,93.00
2019-04-27T06:02:49.882Z,93.20
2019-04-27T06:05:22.498Z,93.00
2019-04-27T06:07:50.827Z,93.10
2019-04-27T06:10:20.312Z,92.70
2019-04-27T06:12:49.872Z,92.80
2019-04-27T06:15:19.860Z,92.80
2019-04-27T06:17:49.624Z,93.00
2019-04-27T06:20:20.265Z,93.30
2019-04-27T06:23:30.119Z,93.10
2019-04-27T06:25:56.329Z,93.10
2019-04-27T06:28:29.317Z,93.30
2019-04-27T06:31:01.078Z,93.20
2019-04-27T06:33:56.529Z,93.30
2019-04-27T06:36:28.935Z,93.20
2019-04-27T06:38:59.002Z,93.30
2019-04-27T06:41:32.172Z,93.10
2019-04-27T06:44:05.112Z,92.70
2019-04-27T06:46:40.334Z,92.60
2019-04-27T06:49:19.423Z,92.40
2019-04-27T06:52:00.813Z,92.40
2019-04-27T06:54:30.325Z,92.30
2019-04-27T06:57:03.412Z,92.60
2019-04-27T06:59:33.128Z,92.40
2019-04-27T07:02:02.769Z,92.10
2019-04-27T07:04:35.377Z,91.90
2019-04-27T07:07:19.365Z,91.90
2019-04-27T07:09:54.620Z,92.10
2019-04-27T07:18:21.587Z,91.30
2019-04-27T07:20:50.324Z,91.00
2019-04-27T07:23:23.195Z,90.70
2019-04-27T07:26:06.806Z,90.70
2019-04-27T07:28:36.541Z,90.90
2019-04-27T07:31:09.627Z,90.40
2019-04-27T07:33:42.609Z,90.20
2019-04-27T07:36:49.134Z,90.10
2019-04-27T07:39:30.149Z,89.80
2019-04-27T07:42:11.742Z,90.00
2019-04-27T07:45:03.003Z,90.00
2019-04-27T07:47:35.692Z,90.20
2019-04-27T07:50:14.218Z,90.40
2019-04-27T07:52:54.869Z,90.50
2019-04-27T07:55:28.733Z,90.80
2019-04-27T07:58:05.077Z,91.00
2019-04-27T08:00:37.445Z,91.20
2019-04-27T08:03:06.112Z,90.80
2019-04-27T08:05:40.390Z,90.30
2019-04-27T08:08:29.638Z,89.70
2019-04-27T08:11:01.351Z,87.90
2019-04-27T08:13:39.450Z,87.60
2019-04-27T08:16:18.342Z,87.10
2019-04-27T08:18:52.514Z,87.50
2019-04-27T08:21:24.567Z,88.90
2019-04-27T08:23:58.655Z,89.20
2019-04-27T08:26:41.706Z,88.40
2019-04-27T08:29:48.778Z,88.90
2019-04-27T08:32:19.473Z,89.60
2019-04-27T08:34:54.403Z,90.00
2019-04-27T08:37:30.341Z,90.10
2019-04-27T08:40:06.152Z,90.10
2019-04-27T08:42:33.143Z,89.70
2019-04-27T08:45:02.961Z,89.90
2019-04-27T08:47:45.097Z,89.40
2019-04-27T08:50:15.075Z,90.40
2019-04-27T08:53:05.487Z,89.30
2019-04-27T08:55:22.566Z,89.20
2019-04-27T08:58:02.081Z,89.10
2019-04-27T09:00:29.866Z,88.40
2019-04-27T09:02:59.634Z,88.20
2019-04-27T09:05:30.595Z,88.10
2019-04-27T09:08:29.924Z,88.40
2019-04-27T09:11:20.532Z,88.50
2019-04-27T09:14:11.393Z,87.20
2019-04-27T09:17:05.994Z,87.20
2019-04-27T09:19:42.178Z,87.80
2019-04-27T09:22:15.884Z,88.70
2019-04-27T09:24:42.826Z,88.60
2019-04-27T09:27:12.419Z,89.20
2019-04-27T09:29:42.064Z,88.90
2019-04-27T09:32:11.681Z,88.50
2019-04-27T09:34:42.914Z,88.30
2019-04-27T09:37:13.877Z,88.30
2019-04-27T09:39:43.632Z,87.50
2019-04-27T09:42:13.180Z,86.80
2019-04-27T09:44:42.732Z,86.80
2019-04-27T09:47:12.194Z,86.40
2019-04-27T09:49:45.954Z,87.00
2019-04-27T09:52:24.432Z,86.50
2019-04-27T09:54:48.190Z,87.60
2019-04-27T09:57:17.776Z,88.60
2019-04-27T09:59:47.342Z,89.40
2019-04-27T10:02:16.829Z,90.20
2019-04-27T10:04:46.366Z,90.00
2019-04-27T10:07:16.884Z,90.30
2019-04-27T10:09:47.489Z,90.30
2019-04-27T10:12:17.298Z,90.30
2019-04-27T10:14:47.759Z,90.60
2019-04-27T10:17:17.363Z,90.40
2019-04-27T10:19:48.732Z,90.30
2019-04-27T10:22:18.337Z,90.40
2019-04-27T10:24:47.834Z,90.10
2019-04-27T10:27:17.463Z,90.10
2019-04-27T10:29:47.028Z,89.50
2019-04-27T10:32:16.581Z,89.50
2019-04-27T10:34:49.068Z,88.90
2019-04-27T10:37:18.734Z,87.40
2019-04-27T10:39:50.294Z,86.90
2019-04-27T10:42:19.585Z,87.10
2019-04-27T10:44:49.152Z,86.60
2019-04-27T10:47:18.663Z,87.00
2019-04-27T10:49:48.588Z,87.30
2019-04-27T10:52:18.040Z,87.50
2019-04-27T10:54:48.014Z,87.80
2019-04-27T10:57:17.548Z,88.00
2019-04-27T10:59:47.172Z,87.70
2019-04-27T11:02:16.661Z,87.40
2019-04-27T11:05:03.908Z,87.80
2019-04-27T11:07:36.410Z,89.10
2019-04-27T11:10:07.687Z,88.70
2019-04-27T11:12:37.450Z,89.50
2019-04-27T11:15:08.339Z,90.00
2019-04-27T11:17:37.797Z,89.80
2019-04-27T11:20:07.909Z,90.20
2019-04-27T11:22:39.145Z,90.30
2019-04-27T11:25:09.453Z,90.40
2019-04-27T11:27:38.993Z,90.30
2019-04-27T11:30:09.928Z,89.80
2019-04-27T11:32:40.028Z,89.50
2019-04-27T11:35:31.660Z,90.30
2019-04-27T11:38:01.402Z,90.30
2019-04-27T11:40:31.101Z,90.10
2019-04-27T11:43:01.934Z,90.00
2019-04-27T11:45:33.302Z,90.10
2019-04-27T11:48:03.017Z,90.10
2019-04-27T11:50:32.519Z,90.20
2019-04-27T11:53:02.006Z,90.00
2019-04-27T11:55:31.655Z,90.10
2019-04-27T11:58:01.157Z,90.70
2019-04-27T12:00:30.831Z,90.80
2019-04-27T12:03:00.374Z,91.00
2019-04-27T12:05:29.835Z,91.00
2019-04-27T12:07:59.686Z,91.10
2019-04-27T12:10:29.207Z,91.40
2019-04-27T12:12:58.689Z,91.60
2019-04-27T12:15:28.279Z,91.20
2019-04-27T12:17:57.789Z,91.40
2019-04-27T12:20:30.616Z,91.40
2019-04-27T12:23:00.127Z,91.50
2019-04-27T12:25:29.654Z,91.70
2019-04-27T12:28:27.415Z,91.80
2019-04-27T12:31:09.594Z,91.90
2019-04-27T12:33:39.149Z,92.10
2019-04-27T12:36:09.099Z,92.20
2019-04-27T12:38:38.719Z,92.20
2019-04-27T12:41:08.353Z,92.30
2019-04-27T12:43:37.824Z,92.20
2019-04-27T12:46:07.827Z,92.20
2019-04-27T12:48:37.562Z,91.80
2019-04-27T12:51:07.266Z,91.70
2019-04-27T12:53:50.591Z,91.70
2019-04-27T12:56:35.662Z,91.80
2019-04-27T12:59:15.942Z,91.60
2019-04-27T13:01:46.252Z,91.80
2019-04-27T13:04:16.350Z,91.90
2019-04-27T13:06:46.998Z,92.20
2019-04-27T13:09:17.355Z,92.40
2019-04-27T13:11:46.994Z,92.60
2019-04-27T13:14:16.648Z,92.80
2019-04-27T13:16:47.611Z,93.00
2019-04-27T13:19:17.688Z,93.40
2019-04-27T13:21:47.259Z,93.60
2019-04-27T13:24:16.988Z,93.70
2019-04-27T13:26:46.615Z,94.00
2019-04-27T13:29:16.768Z,94.20
2019-04-27T13:31:46.538Z,94.10
2019-04-27T13:34:16.345Z,94.10
2019-04-27T13:36:45.962Z,94.50
2019-04-27T13:39:16.269Z,94.60
2019-04-27T13:41:46.426Z,94.80
2019-04-27T13:44:16.409Z,95.00
2019-04-27T13:47:20.146Z,95.00
2019-04-27T13:50:17.665Z,95.00
2019-04-27T13:52:47.479Z,95.50
2019-04-27T13:55:17.040Z,95.60
2019-04-27T13:57:50.491Z,95.50
2019-04-27T14:00:18.214Z,95.50
2019-04-27T14:02:47.803Z,95.60
2019-04-27T14:05:17.484Z,95.50
2019-04-27T14:07:47.033Z,95.50
2019-04-27T14:10:20.261Z,95.60
2019-04-27T14:12:49.302Z,95.80
2019-04-27T14:15:18.824Z,96.00
2019-04-27T14:17:49.972Z,96.30
2019-04-27T14:20:19.784Z,96.40
2019-04-27T14:22:49.845Z,96.50
2019-04-27T14:25:19.387Z,96.80
2019-04-27T14:27:48.948Z,97.10
2019-04-27T14:30:19.934Z,97.40
2019-04-27T14:32:49.474Z,97.90
2019-04-27T14:35:19.016Z,97.60
2019-04-27T14:37:50.235Z,98.00
2019-04-27T14:40:19.890Z,97.80
2019-04-27T14:42:50.580Z,97.90
2019-04-27T14:45:20.723Z,98.00
2019-04-27T14:47:50.288Z,98.00
2019-04-27T14:50:19.812Z,98.20
2019-04-27T14:52:49.345Z,98.20
2019-04-27T14:55:18.877Z,98.20
2019-04-27T14:57:49.560Z,98.30
2019-04-27T15:00:21.292Z,98.50
2019-04-27T15:02:50.838Z,98.90
2019-04-27T15:05:20.355Z,99.00
2019-04-27T15:07:49.827Z,99.20
2019-04-27T15:10:19.393Z,99.30
2019-04-27T15:12:49.083Z,99.30
2019-04-27T15:15:18.669Z,99.30
2019-04-27T15:17:49.432Z,99.30
2019-04-27T15:20:27.265Z,99.30
2019-04-27T15:22:57.133Z,99.10
2019-04-27T15:25:27.337Z,99.10
2019-04-27T15:28:01.397Z,99.20
2019-04-27T15:30:44.802Z,99.40
2019-04-27T15:33:46.798Z,99.50
2019-04-27T15:36:25.938Z,99.80
2019-04-27T15:38:58.508Z,99.90
2019-04-27T15:41:34.031Z,99.90
2019-04-27T15:44:05.885Z,99.90
2019-04-27T15:46:35.040Z,99.90
2019-04-27T15:49:09.618Z,99.90
2019-04-27T15:51:38.097Z,99.90
2019-04-27T15:54:07.336Z,99.90
2019-04-27T15:56:37.073Z,99.90
2019-04-27T15:59:08.152Z,99.90
2019-04-27T16:01:39.606Z,99.90
2019-04-27T16:04:11.129Z,99.90
2019-04-27T16:06:42.950Z,99.90
2019-04-27T16:09:16.159Z,99.90
2019-04-27T16:11:50.232Z,99.90
2019-04-27T16:14:18.437Z,99.90
2019-04-27T16:16:48.750Z,99.90
2019-04-27T16:19:18.522Z,99.90
2019-04-27T16:21:54.131Z,99.90
2019-04-27T16:24:21.223Z,99.90
2019-04-27T16:26:52.217Z,99.90
2019-04-27T16:29:23.119Z,99.90
2019-04-27T16:31:54.081Z,99.90
2019-04-27T16:34:23.573Z,99.90
2019-04-27T16:36:53.266Z,99.90
2019-04-27T16:39:22.898Z,99.90
2019-04-27T16:41:52.905Z,99.90
2019-04-27T16:44:22.485Z,99.90
2019-04-27T16:46:52.202Z,99.90
2019-04-27T16:49:21.715Z,99.90
2019-04-27T16:51:51.349Z,99.90
2019-04-27T16:54:21.399Z,99.90
2019-04-27T16:57:02.035Z,99.90
2019-04-27T16:59:39.731Z,99.90
2019-04-27T17:01:53.481Z,99.90
2019-04-27T17:04:23.031Z,99.90
2019-04-27T17:06:52.660Z,99.90
2019-04-27T17:09:22.170Z,99.90
2019-04-27T17:11:51.878Z,99.90
2019-04-27T17:14:43.553Z,99.90
2019-04-27T17:17:29.091Z,99.90
2019-04-27T17:20:01.045Z,99.90
2019-04-27T17:22:30.865Z,99.90
2019-04-27T17:25:00.409Z,99.90
2019-04-27T17:27:38.244Z,99.90
2019-04-27T17:30:09.677Z,99.90
2019-04-27T17:32:54.835Z,99.90
2019-04-27T17:35:24.556Z,99.90
2019-04-27T17:37:54.459Z,99.90
2019-04-27T17:40:24.231Z,99.90
2019-04-27T17:42:53.769Z,99.90
2019-04-27T17:45:23.265Z,99.90
2019-04-27T17:47:52.830Z,99.90
2019-04-27T17:50:25.192Z,99.90
2019-04-27T17:52:55.249Z,99.90
2019-04-27T17:55:25.415Z,99.90
2019-04-27T17:57:59.976Z,99.90
2019-04-27T18:00:28.122Z,99.90
2019-04-27T18:02:58.021Z,99.90
2019-04-27T18:05:28.541Z,99.90
2019-04-27T18:07:58.219Z,99.90
2019-04-27T18:10:28.202Z,99.90
2019-04-27T18:12:58.256Z,99.90
2019-04-27T18:15:28.725Z,99.90
2019-04-27T18:18:00.876Z,99.90
2019-04-27T18:20:30.370Z,99.90
2019-04-27T18:23:09.813Z,99.90
2019-04-27T18:25:43.480Z,99.90
2019-04-27T18:28:15.914Z,99.90
2019-04-27T18:31:04.606Z,99.90
2019-04-27T18:33:37.082Z,99.90
2019-04-27T18:36:09.322Z,99.90
2019-04-27T18:38:37.281Z,99.90
2019-04-27T18:41:11.541Z,99.90
2019-04-27T18:43:45.880Z,99.90
2019-04-27T18:46:09.918Z,99.90
2019-04-27T18:49:01.266Z,99.90
2019-04-27T18:51:40.346Z,99.90
2019-04-27T18:54:09.895Z,99.90
2019-04-27T18:56:41.634Z,99.90
2019-04-27T18:59:10.636Z,99.90
2019-04-27T19:01:40.274Z,99.90
2019-04-27T19:04:09.758Z,99.90
2019-04-27T19:06:39.267Z,99.90
2019-04-27T19:09:09.349Z,99.90
2019-04-27T19:11:38.822Z,99.90
2019-04-27T19:14:08.488Z,99.90
2019-04-27T19:16:38.491Z,99.90
2019-04-27T19:19:08.651Z,99.90
2019-04-27T19:21:39.254Z,99.90
2019-04-27T19:24:09.087Z,99.90
2019-04-27T19:26:48.483Z,99.90
2019-04-27T19:29:24.158Z,99.90
2019-04-27T19:31:56.280Z,99.90
2019-04-27T19:34:25.868Z,99.90
2019-04-27T19:36:55.351Z,99.90
2019-04-27T19:39:26.027Z,99.90
2019-04-27T19:42:00.316Z,99.90
2019-04-27T19:44:28.979Z,99.90
2019-04-27T19:46:59.996Z,99.90
2019-04-27T19:49:31.588Z,99.90
2019-04-27T19:52:00.377Z,99.90
2019-04-27T19:54:30.360Z,99.90
2019-04-27T19:56:59.901Z,99.90
2019-04-27T19:59:34.307Z,99.90
2019-04-27T20:02:08.764Z,99.90
2019-04-27T20:04:39.593Z,99.90
2019-04-27T20:07:10.663Z,99.90
2019-04-27T20:09:54.631Z,99.90
2019-04-27T20:12:24.341Z,99.90
2019-04-27T20:14:57.022Z,99.90
2019-04-27T20:17:31.211Z,99.90
2019-04-27T20:20:01.315Z,99.90
2019-04-27T20:22:30.737Z,99.90
2019-04-27T20:25:01.906Z,99.90
2019-04-27T20:27:45.201Z,99.90
2019-04-27T20:30:03.189Z,99.90
2019-04-27T20:32:33.110Z,99.90
2019-04-27T20:35:02.603Z,99.90
2019-04-27T20:37:32.147Z,99.90
2019-04-27T20:40:02.053Z,99.90
2019-04-27T20:42:31.701Z,99.90
2019-04-27T20:45:02.133Z,99.90
2019-04-27T20:47:32.175Z,99.90
2019-04-27T20:50:01.763Z,99.90
2019-04-27T20:52:59.270Z,99.90
2019-04-27T20:55:29.142Z,99.90
2019-04-27T20:58:02.107Z,99.90
2019-04-27T21:00:31.793Z,99.90
2019-04-27T21:03:19.950Z,99.90
2019-04-27T21:06:07.289Z,99.90
2019-04-27T21:08:37.935Z,99.90
2019-04-27T21:11:07.429Z,99.90
2019-04-27T21:13:36.998Z,99.90
2019-04-27T21:16:06.463Z,99.90
2019-04-27T21:18:35.926Z,99.90
2019-04-27T21:21:05.469Z,99.90
2019-04-27T21:23:35.025Z,99.90
2019-04-27T21:26:04.528Z,99.90
2019-04-27T21:28:34.185Z,99.90
2019-04-27T21:31:03.669Z,99.90
2019-04-27T21:33:33.182Z,99.90
2019-04-27T21:36:02.985Z,99.90
2019-04-27T21:38:32.559Z,99.90
2019-04-27T21:41:02.140Z,99.90
2019-04-27T21:43:32.725Z,99.90
2019-04-27T21:46:02.509Z,99.90
2019-04-27T21:48:32.052Z,99.90
2019-04-27T21:51:01.627Z,99.90
2019-04-27T21:53:53.194Z,99.90
2019-04-27T21:56:22.798Z,99.90
2019-04-27T21:58:52.297Z,99.90
2019-04-27T22:01:41.673Z,99.90
2019-04-27T22:04:11.469Z,99.90
2019-04-27T22:06:41.580Z,99.90
2019-04-27T22:09:12.906Z,99.90
2019-04-27T22:11:42.681Z,99.90
2019-04-27T22:14:12.238Z,99.90
2019-04-27T22:16:42.021Z,99.90
2019-04-27T22:19:12.046Z,99.90
2019-04-27T22:21:42.067Z,99.90
2019-04-27T22:24:23.239Z,99.90
2019-04-27T22:26:52.730Z,99.90
2019-04-27T22:29:22.292Z,99.90
2019-04-27T22:31:51.886Z,99.90
2019-04-27T22:34:22.109Z,99.90
2019-04-27T22:36:51.612Z,99.90
2019-04-27T22:39:50.950Z,99.90
2019-04-27T22:42:42.012Z,99.90
2019-04-27T22:45:16.537Z,99.90
2019-04-27T22:47:46.079Z,99.90
2019-04-27T22:50:15.597Z,99.90
2019-04-27T22:52:45.246Z,99.90
2019-04-27T22:55:14.783Z,99.90
2019-04-27T22:57:56.273Z,99.90
2019-04-27T23:00:37.185Z,99.90
2019-04-27T23:03:10.883Z,99.90
2019-04-27T23:05:40.512Z,99.90
2019-04-27T23:08:11.301Z,99.90
2019-04-27T23:10:40.810Z,99.90
2019-04-27T23:13:11.662Z,99.90
2019-04-27T23:15:44.634Z,99.90
2019-04-27T23:18:14.138Z,99.90
2019-04-27T23:20:43.819Z,99.90
2019-04-27T23:23:13.329Z,99.90
2019-04-27T23:25:42.819Z,99.90
2019-04-27T23:28:12.429Z,99.90
2019-04-27T23:30:51.602Z,99.90
2019-04-27T23:33:21.190Z,99.90
2019-04-27T23:35:51.663Z,99.90
2019-04-27T23:38:21.227Z,99.90
2019-04-27T23:40:51.759Z,99.90
2019-04-27T23:43:21.456Z,99.90
2019-04-27T23:45:51.664Z,99.90
2019-04-27T23:48:22.681Z,99.90
2019-04-27T23:50:55.079Z,99.90
2019-04-27T23:53:27.515Z,99.90
2019-04-27T23:55:57.368Z,99.90
2019-04-27T23:58:26.862Z,99.90
